This is the latest recevied weather packets stored in our database for station/object K3FAZ. If no packets are shown the sender has not sent any weather packets the latest 1 day(s).
| Time | Temp. | Humidity | Pressure | Rain* | Wind** | Luminosity | Snow |
|---|---|---|---|---|---|---|---|
| 1778018641 | 21.67° C | 59% | 1010.6 hPa | 0 mm | 2.68 m/s, 182° | 151 W/m² | - |
| 1778018339 | 21.11° C | 60% | 1010.5 hPa | 0 mm | 1.34 m/s, 207° | 164 W/m² | - |
| 1778018037 | 21.11° C | 60% | 1010.3 hPa | 0 mm | 1.34 m/s, 239° | 156 W/m² | - |
| 1778017735 | 20.56° C | 59% | 1010.3 hPa | 0 mm | 2.24 m/s, 181° | 139 W/m² | - |
| 1778017432 | 21.11° C | 59% | 1010.3 hPa | 0 mm | 0.89 m/s, 194° | 51 W/m² | - |
| 1778017129 | 21.11° C | 58% | 1010.1 hPa | 0 mm | 1.34 m/s, 155° | 21 W/m² | - |
| 1778016827 | 21.67° C | 56% | 1010.3 hPa | 0 mm | 2.68 m/s, 196° | 42 W/m² | - |
| 1778016523 | 21.67° C | 57% | 1010 hPa | 0 mm | 1.34 m/s, 204° | 74 W/m² | - |
| 1778016220 | 21.67° C | 56% | 1010.3 hPa | 0 mm | 2.24 m/s, 191° | 128 W/m² | - |
| 1778015915 | 21.67° C | 56% | 1010.1 hPa | 0 mm | 3.13 m/s, 224° | 193 W/m² | - |
| 1778015613 | 22.22° C | 53% | 1010.2 hPa | 0 mm | 1.79 m/s, 196° | 137 W/m² | - |
| 1778015310 | 21.67° C | 53% | 1010.3 hPa | 0 mm | 2.68 m/s, 179° | 230 W/m² | - |
| 1778015007 | 21.67° C | 53% | 1010.3 hPa | 0 mm | 2.24 m/s, 190° | 152 W/m² | - |
| 1778014704 | 21.67° C | 53% | 1010.2 hPa | 0 mm | 1.34 m/s, 214° | 146 W/m² | - |
| 1778014402 | 21.67° C | 54% | 1010.5 hPa | 0 mm | 1.79 m/s, 191° | 206 W/m² | - |
| 1778014098 | 21.67° C | 53% | 1010.3 hPa | 0 mm | 1.34 m/s, 208° | 186 W/m² | - |
| 1778013797 | 22.22° C | 53% | 1010.3 hPa | 0 mm | 3.58 m/s, 193° | 225 W/m² | - |
| 1778013494 | 22.22° C | 52% | 1010.3 hPa | 0 mm | 1.34 m/s, 281° | 204 W/m² | - |
| 1778013190 | 21.67° C | 54% | 1010.4 hPa | 0 mm | 0.89 m/s, 194° | 288 W/m² | - |
| 1778012886 | 21.67° C | 52% | 1010.6 hPa | 0 mm | 1.34 m/s, 216° | 159 W/m² | - |
| 1778012583 | 21.67° C | 52% | 1010.5 hPa | 0 mm | 1.34 m/s, 287° | 179 W/m² | - |
| 1778012279 | 22.22° C | 52% | 1010.4 hPa | 0 mm | 0.45 m/s, 125° | 198 W/m² | - |
| 1778011977 | 21.67° C | 53% | 1010.4 hPa | 0 mm | 0.89 m/s, 211° | 321 W/m² | - |
| 1778011675 | 21.67° C | 54% | 1010.5 hPa | 0 mm | 0.45 m/s, 164° | 244 W/m² | - |
| 1778011372 | 21.11° C | 55% | 1010.8 hPa | 0 mm | 0.89 m/s, 225° | 149 W/m² | - |
* Rain latest hour (hover to see other rain measurements)
** Current wind speed in m/s (hover to see current wind gust speed)